Latest Weather Observations for Dalby

IDQ60801

Issued at 3:32 pm EST Tuesday 31 May 2016 (issued every 30 minutes, with the page automatically refreshed every 10 minutes)

About weather observations | Map of weather stations | Latest weather observations for QLD | Other Formats
Station Details ID: 041522 Name: DALBY AIRPORT Lat: -27.16 Lon: 151.26 Height: 343.9 m
Data from the previous 72 hours. | See also: Recent months at Dalby
Date/Time
EST
Temp
°C
App
Temp
°C
Dew
Point
Rel
Hum
%
Delta-T
°C
Wind Press
QNH
hPa
Press
MSL
hPa
Rain
since 9 am
mm
Dir
 
Spd
km/h
Gust
km/h
Spd
kts
Gust
kts
31/03:30pm 20.8 16.0 5.6 37 7.6 E 20 24 11 13 1023.1 1022.5 0.0
31/03:00pm 21.1 18.1 4.2 33 8.3 SSE 9 13 5 7 1023.1 1022.5 0.0
31/02:30pm 21.3 19.2 4.0 32 8.5 ESE 4 13 2 7 1023.1 1022.5 0.0
31/02:00pm 21.3 19.7 4.4 33 8.3 S 2 7 1 4 1023.2 1022.6 0.0
31/01:30pm 21.4 18.4 4.0 32 8.6 W 9 13 5 7 1023.4 1022.8 0.0
31/01:00pm 21.3 18.7 4.0 32 8.5 E 7 15 4 8 1023.7 1023.2 0.0
31/12:30pm 21.7 19.0 3.9 31 8.8 ESE 7 11 4 6 1023.7 1023.2 0.0
31/12:00pm 22.1 19.7 4.2 31 8.8 E 6 15 3 8 1024.6 1024.0 0.0
31/11:30am 21.5 17.9 5.0 34 8.3 NNE 13 22 7 12 1025.1 1024.5 0.0
31/11:00am 20.8 16.3 4.4 34 8.1 ENE 17 33 9 18 1025.4 1024.8 0.0
31/10:30am 19.6 16.4 7.0 44 6.5 ENE 13 19 7 10 1025.7 1025.1 0.0
31/10:00am 18.2 16.2 8.5 53 5.1 ESE 9 13 5 7 1026.3 1025.8 0.0
31/09:30am 16.3 14.1 8.0 58 4.3 ESE 9 13 5 7 1026.6 1026.1 0.0
31/09:00am 14.0 11.7 7.5 65 3.2 E 9 13 5 7 1026.3 1025.8 0.0
31/08:30am 10.5 7.1 5.7 72 2.3 ESE 13 17 7 9 1025.8 1025.2 0.0
31/08:00am 8.1 4.8 4.7 79 1.5 ESE 11 13 6 7 1026.0 1025.4 0.0
31/07:30am 6.0 2.7 2.3 77 1.5 E 9 13 5 7 1025.9 1025.3 0.0
31/07:00am 4.5 0.7 1.5 81 1.2 ESE 11 15 6 8 1025.6 1025.0 0.0
31/06:30am 2.9 -1.2 -0.4 79 1.2 ESE 11 11 6 6 1025.6 1025.0 0.0
31/06:00am 3.0 -1.2 -0.6 77 1.3 ESE 11 13 6 7 1025.2 1024.6 0.0
31/05:30am 3.1 -0.6 0.2 81 1.1 SE 9 9 5 5 1024.9 1024.3 0.0
31/05:00am 3.4 0.1 -1.0 73 1.6 SSE 6 7 3 4 1024.8 1024.2 0.0
31/04:30am 3.3 -0.2 -1.1 73 1.6 SSW 7 9 4 5 1024.4 1023.8 0.0
31/04:00am 3.1 0.5 -1.8 70 1.8 E 2 7 1 4 1024.5 1023.9 0.0
31/03:30am 4.1 0.8 -0.9 70 1.9 ESE 6 7 3 4 1023.9 1023.4 0.0
31/03:00am 4.9 1.7 -0.7 67 2.1 SSE 6 7 3 4 1024.1 1023.5 0.0
31/02:30am 4.4 0.5 -1.4 66 2.2 S 9 11 5 6 1024.3 1023.7 0.0
31/02:00am 4.5 0.7 -1.1 67 2.1 S 9 9 5 5 1024.1 1023.5 0.0
31/01:30am 3.7 0.1 -1.8 67 2.0 S 7 9 4 5 1024.3 1023.7 0.0
31/01:00am 2.7 0.3 -3.2 65 2.0 CALM 0 0 0 0 1024.3 1023.7 0.0
31/12:30am 3.6 1.3 -2.6 64 2.2 CALM 0 7 0 4 1024.6 1024.0 0.0
31/12:00am 4.8 0.9 -1.4 64 2.3 SE 9 11 5 6 1024.3 1023.7 0.0
 
Date/Time
EST
Temp
°C
App
Temp
°C
Dew
Point
Rel
Hum
%
Delta-T
°C
Wind Press
QNH
hPa
Press
MSL
hPa
Rain
since 9 am
mm
Dir
 
Spd
km/h
Gust
km/h
Spd
kts
Gust
kts
30/11:30pm 4.3 0.4 -1.3 67 2.1 E 9 17 5 9 1024.6 1024.0 0.0
30/11:00pm 6.0 2.7 -1.6 58 2.9 ESE 6 6 3 3 1024.5 1023.9 0.0
30/10:30pm 5.2 0.5 -1.5 62 2.5 ESE 13 17 7 9 1024.9 1024.3 0.0
30/10:00pm 6.3 2.7 -1.8 56 3.0 SSW 7 11 4 6 1024.6 1024.0 0.0
30/09:30pm 6.2 2.2 -2.2 55 3.1 ENE 9 11 5 6 1024.6 1024.0 0.0
30/09:00pm 5.9 2.5 -2.2 56 3.0 E 6 11 3 6 1024.8 1024.2 0.0
30/08:30pm 5.7 1.2 -2.9 54 3.1 E 11 15 6 8 1024.5 1023.9 0.0
30/08:00pm 6.8 3.6 -3.7 47 3.8 SE 4 7 2 4 1024.1 1023.5 0.0
30/07:30pm 8.8 6.1 -2.8 44 4.4 SE 2 6 1 3 1023.7 1023.2 0.0
30/07:00pm 11.4 7.9 -1.4 41 5.1 ESE 7 9 4 5 1023.3 1022.7 0.0
30/06:30pm 11.5 8.7 -3.4 35 5.7 SSE 2 7 1 4 1023.3 1022.7 0.0
30/06:00pm 14.4 10.9 -2.9 30 6.9 SSE 6 7 3 4 1022.8 1022.2 0.0
30/05:30pm 16.8 13.2 -3.3 25 8.2 S 6 7 3 4 1022.5 1021.9 0.0
30/05:00pm 18.5 14.7 -5.5 19 9.5 SW 6 6 3 3 1022.3 1021.7 0.0
30/04:30pm 19.8 16.0 -5.2 18 10.1 SSW 6 9 3 5 1022.0 1021.4 0.0
30/04:00pm 19.7 15.4 -4.5 19 9.9 SSW 9 15 5 8 1021.9 1021.3 0.0
30/03:30pm 20.4 16.3 -3.3 20 10.0 S 9 15 5 8 1021.9 1021.3 0.0
30/03:00pm 20.1 16.3 -3.5 20 9.9 SW 7 13 4 7 1021.6 1021.0 0.0
30/02:30pm 19.8 15.7 -3.1 21 9.7 W 9 17 5 9 1021.8 1021.2 0.0
30/02:00pm 19.7 16.3 -0.9 25 9.0 S 7 15 4 8 1021.9 1021.3 0.0
30/01:30pm 19.3 15.8 -1.2 25 8.9 WSW 7 17 4 9 1021.9 1021.3 0.0
30/01:00pm 18.5 14.7 -0.8 27 8.4 W 9 13 5 7 1022.3 1021.7 0.0
30/12:30pm 17.9 14.2 0.1 30 7.9 SW 9 15 5 8 1022.6 1022.0 0.0
30/12:00pm 17.2 13.3 1.2 34 7.2 SSW 11 17 6 9 1023.2 1022.6 0.0
30/11:30am 16.6 13.7 2.6 39 6.5 SSW 7 13 4 7 1023.7 1023.2 0.0
30/11:00am 15.9 12.7 3.0 42 5.9 SSW 9 15 5 8 1024.3 1023.7 0.0
30/10:30am 15.2 11.4 3.7 46 5.4 SSE 13 17 7 9 1024.5 1023.9 0.0
30/10:00am 14.2 10.8 4.2 51 4.7 SSE 11 17 6 9 1024.7 1024.1 0.0
30/09:30am 12.8 9.2 5.0 59 3.7 SE 13 19 7 10 1024.5 1023.9 0.0
30/09:00am 10.5 7.5 4.2 65 2.8 E 9 11 5 6 1024.7 1024.1 0.0
30/08:30am 8.7 6.1 4.1 73 2.1 ESE 7 9 4 5 1024.5 1023.9 0.0
30/08:00am 6.1 3.5 3.1 81 1.3 SSE 6 7 3 4 1024.1 1023.5 0.0
30/07:30am 3.6 0.2 1.8 88 0.7 ESE 9 11 5 6 1023.9 1023.4 0.0
30/07:00am 1.4 -1.9 0.2 92 0.4 E 7 7 4 4 1023.5 1023.0 0.0
30/06:30am 0.4 -2.9 -0.9 91 0.5 E 6 9 3 5 1023.0 1022.4 0.0
30/06:00am 0.1 -3.8 -1.3 90 0.5 ESE 9 11 5 6 1022.6 1022.0 0.0
30/05:30am 0.4 -4.2 -1.0 90 0.5 ESE 13 15 7 8 1022.2 1021.6 0.0
30/05:00am 0.8 -3.0 -0.8 89 0.6 ESE 9 11 5 6 1021.9 1021.3 0.0
30/04:30am 1.0 -3.2 -0.6 89 0.6 ESE 11 13 6 7 1021.7 1021.1 0.0
30/04:00am 0.6 -3.3 -1.3 87 0.7 ENE 9 9 5 5 1021.6 1021.0 0.0
30/03:30am 1.0 -1.2 -1.4 84 0.9 CALM 0 0 0 0 1021.7 1021.1 0.0
30/03:00am 2.0 -1.2 -0.2 85 0.8 ESE 6 7 3 4 1021.5 1020.9 0.0
30/02:30am 2.4 -1.3 0.1 85 0.9 ENE 9 9 5 5 1021.7 1021.1 0.0
30/02:00am 2.6 -0.4 0.5 86 0.8 ENE 6 7 3 4 1021.8 1021.2 0.0
30/01:30am 2.4 -2.0 0.3 86 0.8 ENE 13 15 7 8 1021.7 1021.1 0.0
30/01:00am 2.2 -1.9 -0.4 83 1.0 ENE 11 13 6 7 1021.6 1021.0 0.0
30/12:30am 2.4 -0.9 -0.2 83 1.0 E 7 9 4 5 1021.4 1020.8 0.0
30/12:00am 3.1 -0.6 0.0 80 1.2 ENE 9 11 5 6 1021.5 1020.9 0.0
 
Date/Time
EST
Temp
°C
App
Temp
°C
Dew
Point
Rel
Hum
%
Delta-T
°C
Wind Press
QNH
hPa
Press
MSL
hPa
Rain
since 9 am
mm
Dir
 
Spd
km/h
Gust
km/h
Spd
kts
Gust
kts
29/11:30pm 3.7 0.5 0.9 82 1.1 ENE 7 9 4 5 1021.8 1021.2 0.0
29/11:00pm 2.9 -0.9 -1.1 75 1.5 ENE 9 15 5 8 1022.1 1021.5 0.0
29/10:30pm 3.2 -0.6 -1.0 74 1.6 E 9 13 5 7 1021.9 1021.3 0.0
29/10:00pm 4.4 2.0 -0.4 71 1.8 ENE 2 9 1 5 1021.9 1021.3 0.0
29/09:30pm 8.8 5.8 1.7 61 3.0 SSW 7 9 4 5 1021.9 1021.3 0.0
29/09:00pm 9.6 6.2 2.0 59 3.2 SSW 9 11 5 6 1021.8 1021.2 0.0
29/08:30pm 10.3 6.6 2.4 58 3.4 SSW 11 15 6 8 1021.5 1020.9 0.0
29/08:00pm 9.8 6.5 2.2 59 3.3 SSW 9 9 5 5 1021.4 1020.8 0.0
29/07:30pm 9.9 6.8 1.5 56 3.6 SW 7 9 4 5 1021.0 1020.3 0.0
29/07:00pm 10.3 6.9 1.9 56 3.6 SW 9 11 5 6 1020.8 1020.2 0.0
29/06:30pm 11.6 8.1 1.5 50 4.4 WSW 9 11 5 6 1020.4 1019.8 0.0
29/06:00pm 12.7 8.5 1.4 46 4.9 W 13 15 7 8 1019.9 1019.3 0.0
29/05:30pm 14.2 10.6 0.5 39 5.9 SSW 9 11 5 6 1019.4 1018.8 0.0
29/05:00pm 16.3 12.7 0.4 34 7.0 S 9 13 5 7 1019.2 1018.6 0.0
29/04:30pm 17.8 13.5 0.9 32 7.6 SSW 13 15 7 8 1018.9 1018.3 0.0
29/04:00pm 17.9 13.6 1.0 32 7.6 SSW 13 19 7 10 1018.7 1018.1 0.0
29/03:30pm 18.2 12.9 1.7 33 7.6 SSW 19 24 10 13 1018.3 1017.6 0.0
29/03:00pm 18.2 12.5 0.8 31 7.8 SW 20 28 11 15 1018.2 1017.5 0.0
29/02:30pm 17.6 12.9 1.2 33 7.4 SSW 15 22 8 12 1018.0 1017.3 0.0
29/02:00pm 17.5 12.0 0.6 32 7.5 WSW 19 24 10 13 1018.3 1017.6 0.0
29/01:30pm 17.6 12.3 1.6 34 7.3 SW 19 28 10 15 1018.4 1017.7 0.0
29/01:00pm 17.0 11.6 1.0 34 7.1 WSW 19 30 10 16 1018.7 1018.1 0.0
29/12:30pm 16.4 11.9 2.4 39 6.4 SW 15 20 8 11 1019.1 1018.5 0.0
29/12:00pm 15.9 11.0 2.3 40 6.2 WSW 17 22 9 12 1019.1 1018.5 0.0
29/11:30am 15.7 11.4 3.5 44 5.7 SW 15 22 8 12 1019.4 1018.8 0.0
29/11:00am 14.2 10.3 3.4 48 5.0 SSW 13 22 7 12 1020.1 1019.5 0.0
29/10:30am 14.1 10.1 4.7 53 4.4 S 15 22 8 12 1020.6 1020.0 0.0
29/10:00am 13.0 7.9 2.8 50 4.6 S 19 28 10 15 1020.8 1020.2 0.0
29/09:30am 12.5 8.1 4.5 58 3.7 S 17 26 9 14 1020.7 1020.1 0.0
29/09:00am 10.7 6.9 4.0 63 3.0 SSE 13 20 7 11 1020.5 1019.9 0.0
29/08:30am 8.4 6.8 2.6 67 2.5 CALM 0 0 0 0 1020.8 1020.2 0.0
29/08:00am 7.2 5.8 3.4 77 1.6 CALM 0 0 0 0 1020.6 1020.0 0.0
29/07:30am 4.0 1.1 1.4 83 1.0 NE 6 7 3 4 1020.2 1019.6 0.0
29/07:00am 1.2 -2.0 -0.7 87 0.7 N 6 7 3 4 1019.7 1019.1 0.0
29/06:30am 0.6 -2.7 -1.3 87 0.7 E 6 6 3 3 1019.3 1018.7 0.0
29/06:00am 2.1 0.1 0.2 87 0.7 CALM 0 0 0 0 1019.1 1018.5 0.0
29/05:30am 1.3 -2.2 -1.1 84 0.9 NNE 7 9 4 5 1019.0 1018.4 0.0
29/05:00am 1.4 -2.4 -0.8 85 0.8 NNE 9 11 5 6 1018.7 1018.1 0.0
29/04:30am 1.7 -0.4 -0.9 83 1.0 CALM 0 4 0 2 1018.6 1018.0 0.0
29/04:00am 3.3 0.2 0.4 81 1.1 WNW 6 7 3 4 1018.4 1017.7 0.0
29/03:30am 4.0 0.0 0.3 77 1.4 NW 11 13 6 7 1018.5 1017.8 0.0
29/03:00am 4.1 0.5 0.8 79 1.3 NW 9 9 5 5 1018.2 1017.5 0.0
29/02:30am 3.0 0.9 -0.6 77 1.3 CALM 0 0 0 0 1017.9 1017.2 0.0
29/02:00am 4.4 1.3 1.3 80 1.2 SSW 7 9 4 5 1018.1 1017.4 0.0
29/01:30am 3.2 1.3 0.3 81 1.1 CALM 0 2 0 1 1018.2 1017.5 0.0
29/01:00am 3.5 -0.2 -0.1 77 1.4 NNW 9 11 5 6 1018.2 1017.5 0.0
29/12:30am 4.0 0.3 0.0 75 1.5 NW 9 11 5 6 1018.1 1017.4 0.0
29/12:00am 4.8 1.1 0.2 72 1.8 W 9 11 5 6 1018.0 1017.3 0.0
 
Date/Time
EST
Temp
°C
App
Temp
°C
Dew
Point
Rel
Hum
%
Delta-T
°C
Wind Press
QNH
hPa
Press
MSL
hPa
Rain
since 9 am
mm
Dir
 
Spd
km/h
Gust
km/h
Spd
kts
Gust
kts
28/11:30pm 5.4 1.0 0.6 71 1.9 WNW 13 15 7 8 1018.1 1017.4 0.0
28/11:00pm 7.7 4.6 1.1 63 2.7 WNW 7 9 4 5 1018.0 1017.3 0.0
28/10:30pm 8.7 4.8 1.1 59 3.2 WSW 11 13 6 7 1017.6 1017.0 0.0
28/10:00pm 9.7 5.5 1.4 56 3.5 SW 13 15 7 8 1017.5 1016.9 0.0
28/09:30pm 9.9 5.3 1.5 56 3.6 SW 15 19 8 10 1017.4 1016.8 0.0
28/09:00pm 10.6 6.0 1.7 54 3.8 WSW 15 17 8 9 1017.4 1016.8 0.0
28/08:30pm 11.1 7.0 2.2 54 3.9 WSW 13 17 7 9 1017.3 1016.7 0.0
28/08:00pm 10.7 6.5 1.8 54 3.8 WSW 13 15 7 8 1017.1 1016.5 0.0
28/07:30pm 10.6 6.8 1.7 54 3.8 W 11 15 6 8 1016.7 1016.1 0.0
28/07:00pm 11.9 7.3 1.5 49 4.5 WSW 15 17 8 9 1016.2 1015.6 0.0
28/06:30pm 13.0 8.4 1.7 46 5.0 WSW 15 17 8 9 1016.0 1015.4 0.0
28/06:00pm 14.6 9.2 1.2 40 5.9 WSW 19 22 10 12 1015.5 1014.8 0.0
28/05:30pm 15.8 9.4 1.2 37 6.5 W 24 30 13 16 1014.9 1014.2 0.0
28/05:00pm 17.2 10.1 1.2 34 7.2 W 28 33 15 18 1014.4 1013.8 0.0
28/04:30pm 18.2 10.3 0.8 31 7.8 WSW 32 41 17 22 1014.0 1013.4 0.0
28/04:16pm 18.7 11.4 0.3 29 8.2 W 28 48 15 26 1013.9 1013.3 0.0
28/04:00pm 19.0 10.2 1.5 31 8.0 W 37 44 20 24 1013.6 1013.0 0.0
28/03:44pm 19.3 10.6 1.8 31 8.1 W 37 50 20 27 1013.3 1012.6 0.0

Other Formats:

Comma delimited format used in spreadsheet applications
http://www.bom.gov.au/fwo/IDQ60801/IDQ60801.94542.axf

JavaScript Object Notation format (JSON) in row-major order
http://www.bom.gov.au/fwo/IDQ60801/IDQ60801.94542.json